createdAt,value
2019-05-23T00:05:05.818Z,93.10
2019-05-23T00:10:35.669Z,92.91
2019-05-23T00:15:58.692Z,93.04
2019-05-23T00:21:05.694Z,93.12
2019-05-23T00:26:11.860Z,92.57
2019-05-23T00:31:24.040Z,92.25
2019-05-23T00:36:31.627Z,92.80
2019-05-23T00:41:39.554Z,92.55
2019-05-23T00:46:45.373Z,92.89
2019-05-23T00:51:51.151Z,92.51
2019-05-23T00:56:58.825Z,92.63
2019-05-23T01:02:06.068Z,92.47
2019-05-23T01:07:12.614Z,93.26
2019-05-23T01:12:19.640Z,92.76
2019-05-23T01:17:27.455Z,93.06
2019-05-23T01:22:33.318Z,92.15
2019-05-23T01:27:38.899Z,91.85
2019-05-23T01:32:47.740Z,91.89
2019-05-23T01:37:53.518Z,91.81
2019-05-23T01:42:59.976Z,91.88
2019-05-23T01:48:05.978Z,91.73
2019-05-23T01:53:12.538Z,90.60
2019-05-23T01:58:18.017Z,91.33
2019-05-23T02:03:23.860Z,91.04
2019-05-23T02:08:32.086Z,90.71
2019-05-23T02:13:37.984Z,90.30
2019-05-23T02:18:43.631Z,90.57
2019-05-23T02:23:49.690Z,90.00
2019-05-23T02:28:55.412Z,90.21
2019-05-23T02:34:01.560Z,90.58
2019-05-23T02:39:26.079Z,90.75
2019-05-23T02:44:34.146Z,89.98
2019-05-23T02:49:39.385Z,90.30
2019-05-23T02:54:44.673Z,90.27
2019-05-23T02:59:53.005Z,90.37
2019-05-23T03:04:59.863Z,90.53
2019-05-23T03:10:07.390Z,89.85
2019-05-23T03:15:15.911Z,89.85
2019-05-23T03:20:22.179Z,89.99
2019-05-23T03:26:15.585Z,89.76
2019-05-23T03:31:31.557Z,90.54
2019-05-23T03:36:35.673Z,90.31
2019-05-23T03:41:42.505Z,89.72
2019-05-23T03:46:49.955Z,89.55
2019-05-23T03:51:55.655Z,88.59
2019-05-23T03:57:02.825Z,87.74
2019-05-23T04:02:09.791Z,87.40
2019-05-23T04:07:15.731Z,87.11
2019-05-23T04:12:21.050Z,86.86
2019-05-23T04:17:26.620Z,87.19
2019-05-23T04:22:31.817Z,86.81
2019-05-23T04:27:37.899Z,86.88
2019-05-23T04:32:43.743Z,86.23
2019-05-23T04:37:49.250Z,86.77
2019-05-23T04:42:54.693Z,85.75
2019-05-23T04:48:00.319Z,85.86
2019-05-23T04:53:06.733Z,85.95
2019-05-23T04:58:13.721Z,85.98
2019-05-23T05:03:19.832Z,86.16
2019-05-23T05:08:25.319Z,86.87
2019-05-23T05:13:30.766Z,84.90
2019-05-23T05:18:37.557Z,85.40
2019-05-23T05:23:42.813Z,84.92
2019-05-23T05:28:48.097Z,84.81
2019-05-23T05:33:53.371Z,84.51
2019-05-23T05:38:59.578Z,84.70
2019-05-23T05:44:06.905Z,83.82
2019-05-23T05:49:12.178Z,84.45
2019-05-23T05:54:17.351Z,83.81
2019-05-23T05:59:22.703Z,83.95
2019-05-23T06:04:28.161Z,82.79
2019-05-23T06:09:35.163Z,83.09
2019-05-23T06:14:41.067Z,82.25
2019-05-23T06:19:46.441Z,82.38
2019-05-23T06:24:56.088Z,82.61
2019-05-23T06:30:00.379Z,81.39
2019-05-23T06:35:07.437Z,80.31
2019-05-23T06:40:13.904Z,79.96
2019-05-23T06:45:19.882Z,78.71
2019-05-23T06:50:26.041Z,78.14
2019-05-23T06:55:31.728Z,76.17
2019-05-23T07:00:37.524Z,76.61
2019-05-23T07:05:43.945Z,76.12
2019-05-23T07:10:49.279Z,75.75
2019-05-23T07:15:54.662Z,74.18
2019-05-23T07:20:59.924Z,68.45
2019-05-23T07:26:05.385Z,65.30
2019-05-23T07:31:10.829Z,62.16
2019-05-23T07:36:16.440Z,59.32
2019-05-23T07:41:21.928Z,64.04
2019-05-23T07:46:48.097Z,59.26
2019-05-23T07:51:59.874Z,56.57
2019-05-23T07:57:09.002Z,55.14
2019-05-23T08:02:25.889Z,56.07
2019-05-23T08:07:33.536Z,52.35
2019-05-23T08:12:40.565Z,53.53
2019-05-23T08:17:46.464Z,54.21
2019-05-23T08:22:51.909Z,55.17
2019-05-23T08:27:57.092Z,56.00
2019-05-23T08:33:03.103Z,52.53
2019-05-23T08:38:08.962Z,54.94
2019-05-23T08:43:14.595Z,54.70
2019-05-23T08:48:21.539Z,56.55
2019-05-23T08:53:27.137Z,53.44
2019-05-23T08:58:32.564Z,52.26
2019-05-23T09:03:38.652Z,53.32
2019-05-23T09:08:44.365Z,53.65
2019-05-23T09:13:49.647Z,53.96
2019-05-23T09:18:55.279Z,51.42
2019-05-23T09:24:00.607Z,48.36
2019-05-23T09:29:07.682Z,51.91
2019-05-23T09:34:13.047Z,48.94
2019-05-23T09:39:22.258Z,47.84
2019-05-23T09:44:27.566Z,47.99
2019-05-23T09:49:33.054Z,46.92
2019-05-23T09:54:39.708Z,46.88
2019-05-23T09:59:44.839Z,44.07
2019-05-23T10:04:50.328Z,44.03
2019-05-23T10:09:55.559Z,43.95
2019-05-23T10:15:01.748Z,42.99
2019-05-23T10:20:08.390Z,42.30
2019-05-23T10:25:13.643Z,37.64
2019-05-23T10:30:20.863Z,39.18
2019-05-23T10:35:26.695Z,41.06
2019-05-23T10:40:32.339Z,40.47
2019-05-23T10:45:37.992Z,44.04
2019-05-23T10:50:45.593Z,42.25
2019-05-23T10:55:50.995Z,42.52
2019-05-23T11:00:56.240Z,41.74
2019-05-23T11:06:15.064Z,41.80
2019-05-23T11:11:13.933Z,42.64
2019-05-23T11:16:16.419Z,41.44
2019-05-23T11:21:22.126Z,39.03
2019-05-23T11:26:27.582Z,38.72
2019-05-23T11:31:33.612Z,35.76
2019-05-23T11:36:39.010Z,39.53
2019-05-23T11:41:45.385Z,38.99
2019-05-23T11:46:51.299Z,40.73
2019-05-23T11:51:56.938Z,37.83
2019-05-23T11:57:02.788Z,39.18
2019-05-23T12:02:31.612Z,37.79
2019-05-23T12:07:38.625Z,37.41
2019-05-23T12:12:43.943Z,35.72
2019-05-23T12:17:50.022Z,33.48
2019-05-23T12:22:55.555Z,35.16
2019-05-23T12:28:01.613Z,33.53
2019-05-23T12:33:35.530Z,30.12
2019-05-23T12:38:44.395Z,29.48
2019-05-23T12:43:49.623Z,29.95
2019-05-23T12:49:02.150Z,30.26
2019-05-23T12:54:08.165Z,29.28
2019-05-23T12:59:14.406Z,29.47
2019-05-23T13:04:20.906Z,31.06
2019-05-23T13:09:26.919Z,31.60
2019-05-23T13:14:33.597Z,32.69
2019-05-23T13:19:43.103Z,33.31
2019-05-23T13:24:52.571Z,32.61
2019-05-23T13:29:58.760Z,32.43
2019-05-23T13:35:05.773Z,32.33
2019-05-23T13:40:11.922Z,31.27
2019-05-23T13:45:19.675Z,30.96
2019-05-23T13:50:25.795Z,31.65
2019-05-23T13:55:33.342Z,30.69
2019-05-23T14:00:42.084Z,30.94
2019-05-23T14:05:49.331Z,31.80
2019-05-23T14:10:55.203Z,33.95
2019-05-23T14:16:01.371Z,31.38
2019-05-23T14:21:06.795Z,32.28
2019-05-23T14:26:14.363Z,31.73
2019-05-23T14:31:23.170Z,32.20
2019-05-23T14:36:45.958Z,32.73
2019-05-23T14:41:57.732Z,32.19
2019-05-23T14:47:23.333Z,32.17
2019-05-23T14:52:35.523Z,30.28
2019-05-23T14:57:41.493Z,30.66
2019-05-23T15:02:47.649Z,29.93
2019-05-23T15:07:56.135Z,27.35
2019-05-23T15:13:02.879Z,28.63
2019-05-23T15:18:09.791Z,27.97
2019-05-23T15:23:14.995Z,29.28
2019-05-23T15:28:20.617Z,29.83
2019-05-23T15:33:25.937Z,29.90
2019-05-23T15:38:31.120Z,31.38
2019-05-23T15:43:36.397Z,31.76
2019-05-23T15:48:43.920Z,33.02
2019-05-23T15:54:08.134Z,33.90
2019-05-23T15:59:24.322Z,33.59
2019-05-23T16:04:30.027Z,34.03
2019-05-23T16:09:36.970Z,34.82
2019-05-23T16:14:42.658Z,34.17
2019-05-23T16:19:47.846Z,34.60
2019-05-23T16:24:53.155Z,34.60
2019-05-23T16:29:58.685Z,33.86
2019-05-23T16:35:04.528Z,34.75
2019-05-23T16:40:10.337Z,34.47
2019-05-23T16:45:22.275Z,34.32
2019-05-23T16:50:27.515Z,35.00
2019-05-23T16:55:45.541Z,35.36
2019-05-23T17:01:00.761Z,35.83
2019-05-23T17:06:12.957Z,36.15
2019-05-23T17:11:36.836Z,37.02
2019-05-23T17:17:05.460Z,37.61
2019-05-23T17:22:27.644Z,37.48
2019-05-23T17:28:07.229Z,38.53
2019-05-23T17:33:14.429Z,38.25
2019-05-23T17:38:19.991Z,39.04
2019-05-23T17:43:25.178Z,39.29
2019-05-23T17:48:30.761Z,40.12
2019-05-23T17:53:38.379Z,37.98
2019-05-23T17:58:43.892Z,36.50
2019-05-23T18:03:49.488Z,36.66
2019-05-23T18:08:55.094Z,34.94
2019-05-23T18:14:00.829Z,35.62
2019-05-23T18:19:06.429Z,35.65
2019-05-23T18:24:11.764Z,36.22
2019-05-23T18:29:17.554Z,36.75
2019-05-23T18:34:24.996Z,37.21
2019-05-23T18:39:30.798Z,37.79
2019-05-23T18:44:36.385Z,39.01
2019-05-23T18:49:41.827Z,41.59
2019-05-23T18:54:46.991Z,44.39
2019-05-23T18:59:52.321Z,45.00
2019-05-23T19:04:59.014Z,46.65
2019-05-23T19:10:05.269Z,48.09
2019-05-23T19:15:11.065Z,50.69
2019-05-23T19:20:16.658Z,52.80
2019-05-23T19:25:23.990Z,53.09
2019-05-23T19:30:29.385Z,54.06
2019-05-23T19:35:37.463Z,54.60
2019-05-23T19:40:42.658Z,55.70
2019-05-23T19:45:48.021Z,58.24
2019-05-23T19:50:54.120Z,58.50
2019-05-23T19:55:59.399Z,58.69
2019-05-23T20:01:06.789Z,59.17
2019-05-23T20:06:14.231Z,60.01
2019-05-23T20:11:19.662Z,57.90
2019-05-23T20:16:24.980Z,57.48
2019-05-23T20:21:30.320Z,60.04
2019-05-23T20:26:35.648Z,60.78
2019-05-23T20:31:40.821Z,61.82
2019-05-23T20:36:45.990Z,62.73
2019-05-23T20:41:51.235Z,63.68
2019-05-23T20:46:56.420Z,65.51
2019-05-23T20:52:01.833Z,66.04
2019-05-23T20:57:07.015Z,66.94
2019-05-23T21:02:12.902Z,67.78
2019-05-23T21:07:18.592Z,68.35
2019-05-23T21:12:30.244Z,69.22
2019-05-23T21:17:31.186Z,70.00
2019-05-23T21:22:36.707Z,70.20
2019-05-23T21:27:41.902Z,70.16
2019-05-23T21:32:47.294Z,70.20
2019-05-23T21:37:52.663Z,71.76
2019-05-23T21:42:58.004Z,72.90
2019-05-23T21:48:03.574Z,73.17
2019-05-23T21:53:10.540Z,75.21
2019-05-23T21:58:16.085Z,73.53
2019-05-23T22:03:25.382Z,75.26
2019-05-23T22:08:31.500Z,76.63
2019-05-23T22:13:36.958Z,76.73
2019-05-23T22:18:42.120Z,77.60
2019-05-23T22:23:47.611Z,78.69
2019-05-23T22:28:52.934Z,79.38
2019-05-23T22:34:05.435Z,79.59
2019-05-23T22:39:10.818Z,80.29
2019-05-23T22:44:16.154Z,80.23
2019-05-23T22:49:21.445Z,81.49
2019-05-23T22:54:26.908Z,82.15
2019-05-23T22:59:32.326Z,81.00
2019-05-23T23:04:37.681Z,80.00
2019-05-23T23:09:43.288Z,80.93
2019-05-23T23:14:48.543Z,82.66
2019-05-23T23:19:53.931Z,81.86
2019-05-23T23:24:59.297Z,82.87
2019-05-23T23:30:04.974Z,82.34
2019-05-23T23:35:10.214Z,82.29
2019-05-23T23:40:15.906Z,82.99
2019-05-23T23:45:40.012Z,82.19
2019-05-23T23:51:02.989Z,82.21
2019-05-23T23:56:26.307Z,82.93
